Weather observations for the past three days for
Batesville, Batesville Regional Airport
Imperial (Metric)
Date Time (cdt) Wind (mph) Vis. (mi.) Weather Sky Cond. Temperature (ºF) Relative Humidity Wind Chill (°F) Heat Index (°F) Pressure Precipitation (in)
Air Dwpt 6 hour altimeter (in) sea level (mb) 1 hr 3 hr 6 hr
Max. Min.
04 23:56 S 8 10.00 Fair CLR 68 53.1 59% 29.79 1008.5
04 22:56 S 7 10.00 Fair CLR 69.1 53.1 57% 29.8 1008.7
04 21:56 S 10 G 20 10.00 Fair CLR 71.1 53.1 53% 29.79 1008.5
04 20:56 SE 8 10.00 Fair CLR 71.1 54 55% 29.78 1008.2
04 19:56 E 5 10.00 Fair CLR 72 54 53% 29.76 1007.3
04 18:56 S 3 10.00 Fair CLR 75.9 54 80.1 75.9 47% 78 29.76 1007.6
04 17:56 SW 12 G 21 10.00 Fair CLR 77 53.1 43% 78 29.78 1008.0
04 16:56 SW 15 G 22 10.00 Fair CLR 79 53.1 41% 79 29.78 1008.2
04 15:56 SW 17 G 26 10.00 A Few Clouds FEW060 79 53.1 41% 79 29.8 1008.7
04 14:56 SW 15 G 25 10.00 Fair CLR 79 53.1 41% 79 29.82 1009.4
04 13:56 S 17 G 26 10.00 Fair CLR 79 52 39% 79 29.83 1010.0
04 12:56 SW 13 G 23 10.00 Fair CLR 78.1 53.1 78.1 57.9 42% 79 29.85 1010.5
04 11:56 SW 10 G 24 10.00 Fair CLR 77 53.1 43% 78 29.87 1011.3
04 10:56 SW 14 G 23 10.00 Fair CLR 75 51.1 43% 78 29.9 1012.2
04 09:56 SW 14 G 18 10.00 Fair CLR 72 52 50% 29.91 1012.7
04 08:56 SW 8 10.00 Fair CLR 68 53.1 59% 29.92 1012.9
04 07:56 SW 3 10.00 Fair CLR 63 53.1 70% 29.91 1012.5
04 06:56 Calm 10.00 Fair CLR 57.9 51.1 64 57.9 78% 29.9 1012.4
04 05:56 SW 5 10.00 Fair CLR 61 51.1 70% 29.89 1012.0
04 04:56 S 5 10.00 Fair CLR 61 51.1 70% 29.9 1012.1
04 03:56 SW 5 10.00 Fair CLR 63 52 68% 29.91 1012.6
04 02:56 SW 8 10.00 Fair CLR 64 52 65% 29.91 1012.7
04 01:56 S 3 10.00 Fair CLR 64 52 65% 29.92 1013.0
04 00:56 S 5 10.00 Fair CLR 64.9 52 73.9 64.9 63% 29.94 1013.6
03 23:56 S 6 10.00 Fair CLR 64.9 51.1 61% 29.95 1013.8
03 22:56 S 3 10.00 Fair CLR 66 51.1 59% 29.96 1014.4
03 21:56 S 3 10.00 Fair CLR 66.9 50 55% 29.96 1014.3
03 20:56 S 5 10.00 Fair CLR 68 50 53% 29.95 1014.2
03 19:56 S 5 10.00 Fair CLR 71.1 50 47% 29.94 1013.8
03 18:56 S 5 10.00 Fair CLR 73.9 50 77 70 43% 29.95 1014.1
03 17:56 SW 8 10.00 Fair CLR 75.9 50 40% 78 29.96 1014.5
03 16:56 SW 10 10.00 Fair CLR 75.9 48 37% 78 29.98 1015.2
03 15:56 SW 9 10.00 Fair CLR 75.9 48 37% 78 30.01 1016.2
03 14:56 SW 9 10.00 Fair CLR 75 48 39% 77 30.04 1017.2
03 13:56 SW 10 G 16 10.00 Fair CLR 73 46 38% 30.07 1018.1
03 12:56 S 12 G 17 10.00 Fair CLR 71.1 46 71.1 43 41% 30.11 1019.4
03 11:56 SW 9 10.00 Fair CLR 66.9 44.1 44% 30.14 1020.6
03 10:56 S 8 10.00 Fair CLR 64.9 43 45% 30.16 1021.3
03 09:56 SW 8 10.00 Fair CLR 62.1 43 50% 30.18 1021.9
03 08:56 S 6 10.00 Fair CLR 57.9 43 58% 30.18 1021.8
03 07:56 S 3 10.00 Fair CLR 52 43 72% 30.18 1021.8
03 06:56 Calm 10.00 Fair CLR 43 41 48 39.9 93% 30.17 1021.6
03 05:56 Calm 10.00 Fair CLR 41 39 93% 30.15 1021.1
03 04:56 Calm 10.00 Fair CLR 42.1 39.9 92% 30.16 1021.2
03 03:56 NW 3 10.00 Fair CLR 43 41 93% 30.16 1021.2
03 02:56 NW 3 10.00 Fair CLR 43 41 93% 30.16 1021.1
03 01:56 Calm 10.00 Fair CLR 45 39.9 83% 30.16 1021.1
03 00:56 Calm 10.00 Fair CLR 46.9 39.9 66.9 46.9 77% 30.15 1021.0
02 23:56 NW 3 10.00 Fair CLR 48 41 77% 30.14 1020.7
02 22:56 Calm 10.00 Fair CLR 51.1 39 64% 30.13 1020.3
02 21:56 Calm 10.00 Fair CLR 54 39.9 59% 30.13 1020.1
02 20:56 Calm 9.00 Fair CLR 57 37 47% 30.1 1019.4
02 19:56 NW 3 10.00 Fair CLR 62.1 35.1 37% 30.08 1018.6
02 18:56 Vrbl 5 10.00 Fair CLR 66.9 34 71.1 66.9 30% 30.07 1018.1
02 17:56 NW 8 G 16 10.00 Fair CLR 69.1 32 25% 30.06 1018.0
02 16:56 NW 12 G 20 10.00 Fair CLR 70 33.1 26% 30.06 1017.7
02 15:56 NW 8 10.00 A Few Clouds FEW090 70 34 27% 30.06 1017.9
02 14:56 NW 9 G 17 10.00 A Few Clouds FEW085 71.1 36 28% 30.07 1018.3
02 13:56 NW 10 G 20 10.00 Fair CLR 69.1 37.9 32% 30.08 1018.6
02 12:56 NW 9 G 17 10.00 Fair CLR 69.1 39.9 69.1 44.1 35% 30.1 1019.3
02 11:56 NW 8 10.00 Fair CLR 66 37.9 36% 30.11 1019.6
02 10:56 W 8 10.00 Fair CLR 63 42.1 47% 30.12 1019.8
02 09:56 W 10 10.00 Fair CLR 61 42.1 50% 30.11 1019.7
02 08:56 SW 3 10.00 A Few Clouds FEW095 54 42.1 64% 30.11 1019.7
02 07:56 W 3 10.00 Fair CLR 48.9 43 80% 30.11 1019.6
02 06:56 NW 3 10.00 A Few Clouds FEW080 44.1 41 50 43 89% 30.09 1019.0
02 05:56 NW 5 10.00 Fair CLR 43 42.1 97% 41 30.07 1018.2
02 04:56 Calm 10.00 Fair CLR 43 42.1 97% 30.06 1017.9
02 03:56 Calm 10.00 Fair CLR 45 43 93% 30.06 1017.8
02 02:56 Calm 10.00 Fair CLR 46.9 43 86% 30.05 1017.6
02 01:56 NW 3 10.00 Fair CLR 48 44.1 86% 30.07 1018.1
02 00:56 Calm 10.00 Fair CLR 50 44.1 64 50 80% 30.08 1018.6
Date Time (cdt) Wind (mph) Vis. (mi.) Weather Sky Cond. Air Dwpt Max. Min. Relative Humidity Wind Chill (°F) Heat Index (°F) altimeter (in) sea level (mb) 1 hr 3 hr 6 hr
6 hour
Temperature (ºF) Pressure Precipitation (in)